createdAt,value
2019-04-07T00:01:54.068Z,72.45
2019-04-07T00:04:23.741Z,72.36
2019-04-07T00:06:53.334Z,72.49
2019-04-07T00:09:25.839Z,71.78
2019-04-07T00:11:55.309Z,71.81
2019-04-07T00:14:24.842Z,71.59
2019-04-07T00:16:54.221Z,71.22
2019-04-07T00:19:24.775Z,70.89
2019-04-07T00:21:54.207Z,70.91
2019-04-07T00:24:25.672Z,71.20
2019-04-07T00:26:56.187Z,71.23
2019-04-07T00:29:25.620Z,70.86
2019-04-07T00:31:54.966Z,71.20
2019-04-07T00:34:24.792Z,71.07
2019-04-07T00:36:54.215Z,70.87
2019-04-07T00:39:23.672Z,70.30
2019-04-07T00:41:53.216Z,70.39
2019-04-07T00:44:22.620Z,70.82
2019-04-07T00:46:52.592Z,70.85
2019-04-07T00:49:22.090Z,70.04
2019-04-07T00:51:54.593Z,69.86
2019-04-07T00:54:23.968Z,69.95
2019-04-07T00:56:53.453Z,69.98
2019-04-07T00:59:24.264Z,69.96
2019-04-07T01:01:53.764Z,69.89
2019-04-07T01:04:23.284Z,70.06
2019-04-07T01:06:52.720Z,69.68
2019-04-07T01:09:22.390Z,69.74
2019-04-07T01:11:52.401Z,69.59
2019-04-07T01:14:22.443Z,69.56
2019-04-07T01:16:51.884Z,69.50
2019-04-07T01:19:21.329Z,69.25
2019-04-07T01:21:52.192Z,69.31
2019-04-07T01:24:21.995Z,69.21
2019-04-07T01:26:52.539Z,68.92
2019-04-07T01:29:23.326Z,68.81
2019-04-07T01:31:53.309Z,69.39
2019-04-07T01:34:24.079Z,69.23
2019-04-07T01:36:53.572Z,68.95
2019-04-07T01:39:23.145Z,69.00
2019-04-07T01:42:11.615Z,68.94
2019-04-07T01:45:02.655Z,68.91
2019-04-07T01:47:44.303Z,68.64
2019-04-07T01:50:37.297Z,69.08
2019-04-07T01:53:25.414Z,68.97
2019-04-07T01:56:18.374Z,68.99
2019-04-07T01:59:12.505Z,69.45
2019-04-07T02:02:20.194Z,69.64
2019-04-07T02:05:23.635Z,69.50
2019-04-07T02:08:16.653Z,69.82
2019-04-07T02:11:06.045Z,69.87
2019-04-07T02:13:54.746Z,70.57
2019-04-07T02:16:59.248Z,70.27
2019-04-07T02:19:41.706Z,70.56
2019-04-07T02:22:36.619Z,70.77
2019-04-07T02:25:27.278Z,70.74
2019-04-07T02:28:17.660Z,71.07
2019-04-07T02:31:08.122Z,70.96
2019-04-07T02:33:42.541Z,71.17
2019-04-07T02:36:33.764Z,71.43
2019-04-07T02:39:27.087Z,71.46
2019-04-07T02:42:11.198Z,71.46
2019-04-07T02:45:02.257Z,71.22
2019-04-07T02:47:50.042Z,71.00
2019-04-07T02:50:24.374Z,71.27
2019-04-07T02:53:19.467Z,71.14
2019-04-07T02:55:58.356Z,70.80
2019-04-07T02:58:52.755Z,70.96
2019-04-07T03:01:41.448Z,70.95
2019-04-07T03:04:31.262Z,71.31
2019-04-07T03:07:13.975Z,71.27
2019-04-07T03:09:56.798Z,71.29
2019-04-07T03:12:54.726Z,72.06
2019-04-07T03:15:52.748Z,71.65
2019-04-07T03:18:35.761Z,71.83
2019-04-07T03:21:21.411Z,71.85
2019-04-07T03:23:59.703Z,72.04
2019-04-07T03:26:47.697Z,72.06
2019-04-07T03:29:29.770Z,72.34
2019-04-07T03:32:08.473Z,72.42
2019-04-07T03:35:00.075Z,72.74
2019-04-07T03:37:53.078Z,72.89
2019-04-07T03:40:44.671Z,72.95
2019-04-07T03:43:34.625Z,73.16
2019-04-07T03:46:18.388Z,73.53
2019-04-07T03:49:13.450Z,73.62
2019-04-07T03:52:05.696Z,73.66
2019-04-07T03:54:54.829Z,73.99
2019-04-07T03:57:35.309Z,74.24
2019-04-07T04:00:36.925Z,74.06
2019-04-07T04:03:19.322Z,74.55
2019-04-07T04:08:48.939Z,74.46
2019-04-07T04:11:43.719Z,74.54
2019-04-07T04:14:29.866Z,75.15
2019-04-07T04:16:59.287Z,75.11
2019-04-07T04:19:28.840Z,75.39
2019-04-07T04:21:58.857Z,75.34
2019-04-07T04:24:28.578Z,75.45
2019-04-07T04:26:59.150Z,75.75
2019-04-07T04:29:29.796Z,76.04
2019-04-07T04:31:59.734Z,75.97
2019-04-07T04:34:29.250Z,75.72
2019-04-07T04:36:59.830Z,75.63
2019-04-07T04:39:29.600Z,75.35
2019-04-07T04:41:59.935Z,75.17
2019-04-07T04:44:29.575Z,74.91
2019-04-07T04:47:02.526Z,74.93
2019-04-07T04:49:33.610Z,74.98
2019-04-07T04:52:05.152Z,75.12
2019-04-07T04:54:35.347Z,75.47
2019-04-07T04:57:07.873Z,76.11
2019-04-07T04:59:36.640Z,76.61
2019-04-07T05:02:07.963Z,76.95
2019-04-07T05:04:39.814Z,77.79
2019-04-07T05:07:10.185Z,77.69
2019-04-07T05:09:46.222Z,77.72
2019-04-07T05:12:11.636Z,78.02
2019-04-07T05:14:42.862Z,78.44
2019-04-07T05:17:15.280Z,78.13
2019-04-07T05:19:45.355Z,77.69
2019-04-07T05:22:15.272Z,77.65
2019-04-07T05:24:45.488Z,77.52
2019-04-07T05:27:14.939Z,77.33
2019-04-07T05:29:44.653Z,77.24
2019-04-07T05:32:14.564Z,77.53
2019-04-07T05:34:43.919Z,77.45
2019-04-07T05:37:14.093Z,77.87
2019-04-07T05:39:43.744Z,77.83
2019-04-07T05:42:13.482Z,77.72
2019-04-07T05:44:43.201Z,77.71
2019-04-07T05:47:14.407Z,78.03
2019-04-07T05:49:44.572Z,77.65
2019-04-07T05:52:17.308Z,77.08
2019-04-07T05:54:49.595Z,76.22
2019-04-07T05:57:18.608Z,75.78
2019-04-07T05:59:48.722Z,75.49
2019-04-07T06:02:18.870Z,74.65
2019-04-07T06:04:49.184Z,74.32
2019-04-07T06:07:19.126Z,74.27
2019-04-07T06:09:51.242Z,73.69
2019-04-07T06:12:20.355Z,73.31
2019-04-07T06:14:49.875Z,72.47
2019-04-07T06:17:19.465Z,72.44
2019-04-07T06:19:51.231Z,71.92
2019-04-07T06:22:21.019Z,72.21
2019-04-07T06:24:52.848Z,71.90
2019-04-07T06:27:22.819Z,71.38
2019-04-07T06:29:59.909Z,70.78
2019-04-07T06:32:28.278Z,70.58
2019-04-07T06:34:57.553Z,70.05
2019-04-07T06:37:29.381Z,69.84
2019-04-07T06:39:57.822Z,69.77
2019-04-07T06:42:31.550Z,68.89
2019-04-07T06:45:00.490Z,68.73
2019-04-07T06:47:33.584Z,68.57
2019-04-07T06:50:31.172Z,67.92
2019-04-07T06:53:25.876Z,68.51
2019-04-07T06:56:14.330Z,67.93
2019-04-07T06:58:59.246Z,67.43
2019-04-07T07:01:36.210Z,66.86
2019-04-07T07:04:24.346Z,66.46
2019-04-07T07:07:07.349Z,66.30
2019-04-07T07:10:00.124Z,66.07
2019-04-07T07:12:59.162Z,65.35
2019-04-07T07:15:49.888Z,65.08
2019-04-07T07:18:28.376Z,64.77
2019-04-07T07:21:05.128Z,64.30
2019-04-07T07:23:37.466Z,63.62
2019-04-07T07:26:08.121Z,63.30
2019-04-07T07:28:38.022Z,62.69
2019-04-07T07:31:07.812Z,62.09
2019-04-07T07:33:40.442Z,62.01
2019-04-07T07:36:08.185Z,60.77
2019-04-07T07:38:37.499Z,60.63
2019-04-07T07:41:06.785Z,60.40
2019-04-07T07:43:36.095Z,60.08
2019-04-07T07:46:05.628Z,59.54
2019-04-07T07:48:35.644Z,59.28
2019-04-07T07:51:07.138Z,59.53
2019-04-07T07:53:36.207Z,58.70
2019-04-07T07:56:10.591Z,58.30
2019-04-07T07:58:36.879Z,57.86
2019-04-07T08:01:06.368Z,58.24
2019-04-07T08:03:36.077Z,57.80
2019-04-07T08:06:08.223Z,56.75
2019-04-07T08:08:36.431Z,56.70
2019-04-07T08:11:05.857Z,56.72
2019-04-07T08:13:41.202Z,55.54
2019-04-07T08:16:06.423Z,54.58
2019-04-07T08:18:37.147Z,54.08
2019-04-07T08:21:07.260Z,53.81
2019-04-07T08:23:37.327Z,52.76
2019-04-07T08:26:09.436Z,52.94
2019-04-07T08:28:39.220Z,52.35
2019-04-07T08:31:08.572Z,50.76
2019-04-07T08:33:38.529Z,50.73
2019-04-07T08:36:11.168Z,50.28
2019-04-07T08:38:38.857Z,48.93
2019-04-07T08:41:10.569Z,49.21
2019-04-07T08:43:39.798Z,47.93
2019-04-07T08:46:09.928Z,48.27
2019-04-07T08:48:40.171Z,48.29
2019-04-07T08:51:10.101Z,47.96
2019-04-07T08:53:43.603Z,48.15
2019-04-07T08:56:10.892Z,47.51
2019-04-07T08:58:40.265Z,47.20
2019-04-07T09:01:09.782Z,46.56
2019-04-07T09:03:39.938Z,45.55
2019-04-07T09:06:09.708Z,44.49
2019-04-07T09:08:39.873Z,44.87
2019-04-07T09:11:15.770Z,43.47
2019-04-07T09:13:55.955Z,43.02
2019-04-07T09:16:39.321Z,41.90
2019-04-07T09:19:31.013Z,41.32
2019-04-07T09:22:25.299Z,41.26
2019-04-07T09:25:20.415Z,41.74
2019-04-07T09:28:03.164Z,41.51
2019-04-07T09:30:41.008Z,40.18
2019-04-07T09:33:29.787Z,40.26
2019-04-07T09:36:24.635Z,40.82
2019-04-07T09:39:16.614Z,40.81
2019-04-07T09:42:10.134Z,40.93
2019-04-07T09:44:46.776Z,39.90
2019-04-07T09:47:46.850Z,40.19
2019-04-07T09:50:33.218Z,39.33
2019-04-07T09:53:30.735Z,39.20
2019-04-07T09:56:21.825Z,39.53
2019-04-07T09:59:00.310Z,39.55
2019-04-07T10:02:06.303Z,40.04
2019-04-07T10:04:59.290Z,39.56
2019-04-07T10:07:40.255Z,38.89
2019-04-07T10:10:35.017Z,39.42
2019-04-07T10:13:26.496Z,38.81
2019-04-07T10:16:14.901Z,38.66
2019-04-07T10:19:13.000Z,39.00
2019-04-07T10:22:13.943Z,39.40
2019-04-07T10:25:02.471Z,38.75
2019-04-07T10:27:54.377Z,38.88
2019-04-07T10:30:34.942Z,38.37
2019-04-07T10:33:26.285Z,38.76
2019-04-07T10:36:13.721Z,38.26
2019-04-07T10:39:02.170Z,37.39
2019-04-07T10:41:42.806Z,37.37
2019-04-07T10:44:36.534Z,37.70
2019-04-07T10:47:25.605Z,36.85
2019-04-07T10:50:14.350Z,36.33
2019-04-07T10:53:02.685Z,36.75
2019-04-07T10:55:58.086Z,35.16
2019-04-07T10:58:41.412Z,36.30
2019-04-07T11:01:29.635Z,36.07
2019-04-07T11:04:24.016Z,35.80
2019-04-07T11:07:19.055Z,34.81
2019-04-07T11:10:05.140Z,35.54
2019-04-07T11:12:47.976Z,35.66
2019-04-07T11:15:33.031Z,35.18
2019-04-07T11:18:33.747Z,35.79
2019-04-07T11:21:21.495Z,35.35
2019-04-07T11:24:01.617Z,35.02
2019-04-07T11:26:49.889Z,35.45
2019-04-07T11:29:29.564Z,34.92
2019-04-07T11:32:17.716Z,34.95
2019-04-07T11:34:55.595Z,34.89
2019-04-07T11:37:53.937Z,35.35
2019-04-07T11:40:45.244Z,35.66
2019-04-07T11:43:30.588Z,35.43
2019-04-07T11:46:24.267Z,35.42
2019-04-07T11:49:19.519Z,35.34
2019-04-07T11:52:00.017Z,35.05
2019-04-07T11:54:38.164Z,35.40
2019-04-07T11:57:13.671Z,35.13
2019-04-07T12:00:00.016Z,34.73
2019-04-07T12:02:55.396Z,34.97
2019-04-07T12:05:46.840Z,35.10
2019-04-07T12:08:38.684Z,35.20
2019-04-07T12:11:27.752Z,34.20
2019-04-07T12:14:09.121Z,34.56
2019-04-07T12:16:59.359Z,34.34
2019-04-07T12:19:54.907Z,34.66
2019-04-07T12:22:49.934Z,34.45
2019-04-07T12:25:37.329Z,34.46
2019-04-07T12:28:47.564Z,34.96
2019-04-07T12:31:29.356Z,34.63
2019-04-07T12:34:15.390Z,34.64
2019-04-07T12:37:22.012Z,34.79
2019-04-07T12:40:13.144Z,35.28
2019-04-07T12:43:19.481Z,34.96
2019-04-07T12:45:54.878Z,34.25
2019-04-07T12:48:32.409Z,33.53
2019-04-07T12:51:27.589Z,34.25
2019-04-07T12:54:19.006Z,33.92
2019-04-07T12:57:07.305Z,33.69
2019-04-07T12:59:50.157Z,34.15
2019-04-07T13:02:39.153Z,34.13
2019-04-07T13:05:21.360Z,34.24
2019-04-07T13:08:09.171Z,33.26
2019-04-07T13:11:04.840Z,32.67
2019-04-07T13:13:56.093Z,34.26
2019-04-07T13:16:44.619Z,33.36
2019-04-07T13:19:35.571Z,33.00
2019-04-07T13:22:27.236Z,33.59
2019-04-07T13:25:13.091Z,32.90
2019-04-07T13:27:55.820Z,33.13
2019-04-07T13:30:32.615Z,33.20
2019-04-07T13:33:33.187Z,33.37
2019-04-07T13:36:21.475Z,32.78
2019-04-07T13:39:12.811Z,33.24
2019-04-07T13:42:02.115Z,33.38
2019-04-07T13:44:49.737Z,33.53
2019-04-07T13:47:31.989Z,32.99
2019-04-07T13:50:17.934Z,32.65
2019-04-07T13:53:12.470Z,33.03
2019-04-07T13:55:59.580Z,32.80
2019-04-07T13:58:39.004Z,32.04
2019-04-07T14:01:32.275Z,32.83
2019-04-07T14:04:23.101Z,32.05
2019-04-07T14:06:58.818Z,32.25
2019-04-07T14:09:50.695Z,32.83
2019-04-07T14:12:51.271Z,32.07
2019-04-07T14:15:38.408Z,32.44
2019-04-07T14:18:17.888Z,32.54
2019-04-07T14:21:12.240Z,33.21
2019-04-07T14:24:03.648Z,33.14
2019-04-07T14:27:04.366Z,32.31
2019-04-07T14:30:02.726Z,32.17
2019-04-07T14:32:50.738Z,32.13
2019-04-07T14:35:37.015Z,31.20
2019-04-07T14:38:33.236Z,32.21
2019-04-07T14:41:21.507Z,32.85
2019-04-07T14:43:56.530Z,33.07
2019-04-07T14:46:50.118Z,32.87
2019-04-07T14:49:37.915Z,34.00
2019-04-07T14:52:36.156Z,33.15
2019-04-07T14:55:54.504Z,33.93
2019-04-07T14:59:08.089Z,33.35
2019-04-07T15:01:54.013Z,33.45
2019-04-07T15:04:59.504Z,33.11
2019-04-07T15:07:52.805Z,33.30
2019-04-07T15:10:27.607Z,33.23
2019-04-07T15:13:01.891Z,33.39
2019-04-07T15:15:41.676Z,33.88
2019-04-07T15:18:11.639Z,34.36
2019-04-07T15:20:43.759Z,34.47
2019-04-07T15:23:25.499Z,33.76
2019-04-07T15:25:58.952Z,33.14
2019-04-07T15:28:49.291Z,33.33
2019-04-07T15:31:21.718Z,33.70
2019-04-07T15:34:08.661Z,33.31
2019-04-07T15:36:47.983Z,33.37
2019-04-07T15:39:44.749Z,33.52
2019-04-07T15:42:52.608Z,33.72
2019-04-07T15:45:33.362Z,34.14
2019-04-07T15:48:27.125Z,34.62
2019-04-07T15:51:13.287Z,34.52
2019-04-07T15:54:06.414Z,34.29
2019-04-07T15:56:35.775Z,33.81
2019-04-07T15:59:46.200Z,33.48
2019-04-07T16:02:16.041Z,33.42
2019-04-07T16:04:49.219Z,33.40
2019-04-07T16:07:23.070Z,33.32
2019-04-07T16:10:14.520Z,33.75
2019-04-07T16:13:08.896Z,34.46
2019-04-07T16:21:49.458Z,34.21
2019-04-07T16:24:53.879Z,34.47
2019-04-07T16:27:40.632Z,34.11
2019-04-07T16:35:02.538Z,33.76
2019-04-07T16:37:23.622Z,33.72
2019-04-07T16:40:18.509Z,34.07
2019-04-07T16:43:58.705Z,34.44
2019-04-07T16:46:28.252Z,33.67
2019-04-07T16:49:01.791Z,34.24
2019-04-07T16:51:33.646Z,33.69
2019-04-07T16:54:02.723Z,33.94
2019-04-07T16:56:32.331Z,34.32
2019-04-07T16:59:02.580Z,34.21
2019-04-07T17:01:31.971Z,34.39
2019-04-07T17:04:01.301Z,34.48
2019-04-07T17:06:34.716Z,35.31
2019-04-07T17:09:02.456Z,35.30
2019-04-07T17:11:32.313Z,35.22
2019-04-07T17:14:02.939Z,35.44
2019-04-07T17:16:33.439Z,35.88
2019-04-07T17:19:02.823Z,35.54
2019-04-07T17:21:32.893Z,35.65
2019-04-07T17:24:03.996Z,36.02
2019-04-07T17:26:37.428Z,35.51
2019-04-07T17:29:05.053Z,35.49
2019-04-07T17:31:34.801Z,34.94
2019-04-07T17:34:07.344Z,35.02
2019-04-07T17:36:48.426Z,35.55
2019-04-07T17:40:15.710Z,35.82
2019-04-07T17:42:45.910Z,36.17
2019-04-07T17:45:48.022Z,35.57
2019-04-07T17:48:37.348Z,36.25
2019-04-07T17:51:42.217Z,36.70
2019-04-07T17:54:29.189Z,36.82
2019-04-07T17:57:07.110Z,36.72
2019-04-07T17:59:55.291Z,36.77
2019-04-07T18:02:44.149Z,37.56
2019-04-07T18:05:42.005Z,37.03
2019-04-07T18:08:46.010Z,37.34
2019-04-07T18:11:35.022Z,38.09
2019-04-07T18:14:24.570Z,38.29
2019-04-07T18:17:08.663Z,39.21
2019-04-07T18:19:45.431Z,39.70
2019-04-07T18:22:42.466Z,40.43
2019-04-07T18:25:25.070Z,40.90
2019-04-07T18:28:03.276Z,41.30
2019-04-07T18:30:44.040Z,41.75
2019-04-07T18:33:21.307Z,42.53
2019-04-07T18:36:12.073Z,42.41
2019-04-07T18:39:04.479Z,43.43
2019-04-07T18:41:42.484Z,43.08
2019-04-07T18:44:35.236Z,43.18
2019-04-07T18:47:24.143Z,43.19
2019-04-07T18:50:20.226Z,43.39
2019-04-07T18:53:09.203Z,43.67
2019-04-07T18:55:57.954Z,44.02
2019-04-07T18:59:04.670Z,44.01
2019-04-07T19:02:01.793Z,43.73
2019-04-07T19:05:05.291Z,44.28
2019-04-07T19:07:52.866Z,44.40
2019-04-07T19:10:35.542Z,44.63
2019-04-07T19:13:30.064Z,45.01
2019-04-07T19:16:13.561Z,45.11
2019-04-07T19:19:05.164Z,44.74
2019-04-07T19:21:53.723Z,44.98
2019-04-07T19:25:05.181Z,44.57
2019-04-07T19:27:50.463Z,44.83
2019-04-07T19:30:38.909Z,45.21
2019-04-07T19:33:30.083Z,45.21
2019-04-07T19:36:24.399Z,45.20
2019-04-07T19:39:21.393Z,45.31
2019-04-07T19:42:14.840Z,45.13
2019-04-07T19:45:07.422Z,44.57
2019-04-07T19:48:05.401Z,44.38
2019-04-07T19:50:59.039Z,44.70
2019-04-07T19:53:43.173Z,44.87
2019-04-07T19:56:25.836Z,44.73
2019-04-07T19:59:12.841Z,44.62
2019-04-07T20:02:10.052Z,44.73
2019-04-07T20:05:01.553Z,45.15
2019-04-07T20:07:48.519Z,45.40
2019-04-07T20:10:35.860Z,45.53
2019-04-07T20:13:38.382Z,45.51
2019-04-07T20:16:16.349Z,46.26
2019-04-07T20:18:59.573Z,46.79
2019-04-07T20:21:54.783Z,46.35
2019-04-07T20:24:40.641Z,45.86
2019-04-07T20:27:29.755Z,47.26
2019-04-07T20:30:31.735Z,46.22
2019-04-07T20:33:21.014Z,46.42
2019-04-07T20:36:20.499Z,46.47
2019-04-07T20:39:00.534Z,46.99
2019-04-07T20:41:36.369Z,46.96
2019-04-07T20:44:30.830Z,46.66
2019-04-07T20:47:31.554Z,47.29
2019-04-07T20:50:23.767Z,47.58
2019-04-07T20:53:17.375Z,48.14
2019-04-07T20:55:54.963Z,48.56
2019-04-07T20:58:53.813Z,47.97
2019-04-07T21:01:25.603Z,48.33
2019-04-07T21:04:17.910Z,49.02
2019-04-07T21:07:16.437Z,49.15
2019-04-07T21:09:56.371Z,49.24
2019-04-07T21:12:47.182Z,49.04
2019-04-07T21:15:50.082Z,49.67
2019-04-07T21:18:31.750Z,50.00
2019-04-07T21:21:11.818Z,50.25
2019-04-07T21:23:46.204Z,50.29
2019-04-07T21:26:41.195Z,50.99
2019-04-07T21:29:20.369Z,50.96
2019-04-07T21:32:09.597Z,51.68
2019-04-07T21:34:53.607Z,51.41
2019-04-07T21:37:47.561Z,50.79
2019-04-07T21:40:28.590Z,51.29
2019-04-07T21:43:09.260Z,50.70
2019-04-07T21:46:09.977Z,50.84
2019-04-07T21:49:01.765Z,51.20
2019-04-07T21:51:46.601Z,51.47
2019-04-07T21:54:37.863Z,52.11
2019-04-07T21:57:37.998Z,52.04
2019-04-07T22:00:32.576Z,51.65
2019-04-07T22:03:21.241Z,52.13
2019-04-07T22:06:07.784Z,52.28
2019-04-07T22:08:47.840Z,52.57
2019-04-07T22:11:17.651Z,52.74
2019-04-07T22:13:47.142Z,52.85
2019-04-07T22:16:16.449Z,53.07
2019-04-07T22:18:45.721Z,52.96
2019-04-07T22:21:15.009Z,53.17
2019-04-07T22:23:44.381Z,52.78
2019-04-07T22:26:17.891Z,52.94
2019-04-07T22:28:44.983Z,53.58
2019-04-07T22:31:16.982Z,53.90
2019-04-07T22:33:46.627Z,54.13
2019-04-07T22:36:16.679Z,54.41
2019-04-07T22:38:46.085Z,55.20
2019-04-07T22:41:15.559Z,55.24
2019-04-07T22:43:47.834Z,55.47
2019-04-07T22:46:19.428Z,55.53
2019-04-07T22:48:46.780Z,55.83
2019-04-07T22:51:16.729Z,55.96
2019-04-07T22:53:46.093Z,56.35
2019-04-07T22:56:16.070Z,56.22
2019-04-07T22:58:45.407Z,55.35
2019-04-07T23:01:14.754Z,55.72
2019-04-07T23:03:43.995Z,56.38
2019-04-07T23:06:13.250Z,56.67
2019-04-07T23:08:43.255Z,56.61
2019-04-07T23:11:12.532Z,56.19
2019-04-07T23:13:42.028Z,56.26
2019-04-07T23:16:14.920Z,56.96
2019-04-07T23:18:42.440Z,57.18
2019-04-07T23:21:11.980Z,57.40
2019-04-07T23:23:41.978Z,57.01
2019-04-07T23:26:11.281Z,57.27
2019-04-07T23:28:40.728Z,57.68
2019-04-07T23:31:09.981Z,57.82
2019-04-07T23:33:39.352Z,58.54
2019-04-07T23:36:09.435Z,57.70
2019-04-07T23:38:39.096Z,58.23
2019-04-07T23:41:08.421Z,58.79
2019-04-07T23:43:37.699Z,59.36
2019-04-07T23:46:18.751Z,59.56
2019-04-07T23:48:38.144Z,58.96
2019-04-07T23:51:07.475Z,58.86
2019-04-07T23:54:08.699Z,59.00
2019-04-07T23:56:39.429Z,59.52
2019-04-07T23:59:08.991Z,60.11
